Time;durP1;ratioP1;P1;durP2;ratioP2;P2;SDS_P1;SDS_P2;PMS_P1;PMS_P2;Temp;Humidity;BMP_temperature;BMP_pressure;BME280_temperature;BME280_humidity;BME280_pressure;Samples;Min_cycle;Max_cycle;Signal;HPM_P1;HPM_P2
2022/10/15 00:00:46;;;;;;;58.80;37.08;;;;;;;24.09;72.70;98613.84;4872041;29;20717;-67
2022/10/15 00:03:23;;;;;;;56.13;34.75;;;;;;;24.04;72.80;98617.50;4878756;29;20077;-67
2022/10/15 00:06:27;;;;;;;58.80;36.00;;;;;;;24.06;72.79;98619.91;4870930;29;20144;-66
2022/10/15 00:09:03;;;;;;;59.70;35.85;;;;;;;24.02;72.57;98625.22;4872006;29;20348;-67
2022/10/15 00:11:58;;;;;;;65.78;38.38;;;;;;;24.00;72.04;98621.97;4872052;29;20805;-66
2022/10/15 00:14:33;;;;;;;66.05;37.53;;;;;;;24.04;71.74;98623.00;4870978;29;20056;-67
2022/10/15 00:17:23;;;;;;;76.82;38.90;;;;;;;23.99;71.53;98636.78;4872989;29;20144;-67
2022/10/15 00:20:15;;;;;;;69.45;39.33;;;;;;;23.97;71.23;98626.13;4873031;29;20092;-67
2022/10/15 00:22:58;;;;;;;72.38;38.75;;;;;;;23.99;71.32;98637.59;4872223;29;20049;-67
2022/10/15 00:25:47;;;;;;;78.60;40.92;;;;;;;23.97;70.75;98639.81;4874270;29;20077;-67
2022/10/15 00:28:29;;;;;;;77.78;40.85;;;;;;;24.03;71.22;98646.81;4875250;29;20049;-67
2022/10/15 00:31:23;;;;;;;73.57;39.00;;;;;;;24.01;70.90;98651.81;4874736;29;20045;-67
2022/10/15 00:34:05;;;;;;;78.38;39.65;;;;;;;23.95;71.40;98647.53;4854412;29;20077;-67
2022/10/15 00:36:56;;;;;;;74.78;39.95;;;;;;;23.83;72.04;98652.72;4853789;29;20144;-67
2022/10/15 00:39:39;;;;;;;79.82;40.70;;;;;;;23.91;71.38;98654.75;4837668;29;20132;-67
2022/10/15 00:42:29;;;;;;;69.05;39.70;;;;;;;23.79;71.66;98654.44;4854777;29;20573;-67
2022/10/15 00:45:18;;;;;;;77.50;41.58;;;;;;;23.83;71.69;98645.31;4886901;29;20060;-66
2022/10/15 00:48:07;;;;;;;79.65;43.47;;;;;;;23.83;71.81;98655.47;4891654;29;21034;-67
2022/10/15 00:50:49;;;;;;;90.50;47.05;;;;;;;23.85;71.07;98658.72;4875000;29;20053;-66
2022/10/15 00:53:38;;;;;;;96.43;46.17;;;;;;;23.86;70.78;98660.31;4888404;29;20052;-67
2022/10/15 00:56:23;;;;;;;99.13;46.92;;;;;;;23.88;70.25;98655.34;4880515;29;20052;-65
2022/10/15 00:59:14;;;;;;;104.47;48.58;;;;;;;23.78;70.76;98659.09;4864692;29;20064;-65
2022/10/15 01:02:11;;;;;;;91.13;45.53;;;;;;;23.85;70.19;98655.97;4871818;29;20095;-65
2022/10/15 01:04:48;;;;;;;103.47;47.75;;;;;;;23.87;70.45;98656.47;4872346;29;20055;-65
2022/10/15 01:07:44;;;;;;;95.25;46.50;;;;;;;23.88;70.15;98654.53;4872133;29;20044;-66
2022/10/15 01:10:21;;;;;;;100.95;49.00;;;;;;;23.86;70.52;98660.31;4854506;29;20048;-65
2022/10/15 01:13:33;;;;;;;109.88;49.58;;;;;;;23.80;70.29;98667.03;4872373;29;20068;-68
2022/10/15 01:16:35;;;;;;;115.18;49.47;;;;;;;23.81;70.19;98661.25;4871403;29;20049;-65
2022/10/15 01:19:37;;;;;;;113.60;52.35;;;;;;;23.86;70.60;98659.53;4871252;29;20476;-65
2022/10/15 01:22:44;;;;;;;109.57;50.58;;;;;;;23.80;70.82;98661.53;4871843;29;20061;-64
2022/10/15 01:25:59;;;;;;;110.78;49.75;;;;;;;23.82;71.20;98667.53;4853650;29;20065;-66
2022/10/15 01:29:17;;;;;;;113.78;51.90;;;;;;;23.77;70.88;98668.41;4853833;29;20118;-65
2022/10/15 01:32:05;;;;;;;108.20;51.95;;;;;;;23.79;71.59;98668.97;4849287;29;20049;-66
2022/10/15 01:35:25;;;;;;;111.93;50.28;;;;;;;23.81;71.50;98671.41;4853328;29;20081;-66
2022/10/15 01:38:37;;;;;;;112.25;50.70;;;;;;;23.95;71.44;98674.16;4851132;29;20122;-66
2022/10/15 01:41:45;;;;;;;119.22;53.65;;;;;;;23.96;71.80;98676.59;4852320;29;20141;-67
2022/10/15 01:44:27;;;;;;;106.63;50.63;;;;;;;23.97;72.21;98686.44;4852072;29;20064;-65
2022/10/15 01:47:53;;;;;;;110.22;52.42;;;;;;;24.11;71.36;98680.16;4836647;29;20053;-67
2022/10/15 01:50:51;;;;;;;106.15;52.58;;;;;;;24.14;72.00;98677.59;4836669;29;20485;-67
2022/10/15 01:53:35;;;;;;;115.57;53.45;;;;;;;24.26;72.05;98685.31;4856885;29;20504;-67
2022/10/15 01:56:28;;;;;;;119.82;54.40;;;;;;;24.30;71.86;98686.34;4846475;29;20049;-67
2022/10/15 01:59:11;;;;;;;110.70;53.92;;;;;;;24.26;72.22;98687.25;4837012;29;20053;-67
2022/10/15 02:02:00;;;;;;;121.25;56.30;;;;;;;24.35;71.48;98694.47;4838826;29;20053;-67
2022/10/15 02:04:46;;;;;;;112.35;57.03;;;;;;;24.37;71.51;98688.69;4851477;29;20110;-67
2022/10/15 02:07:50;;;;;;;111.45;54.03;;;;;;;24.52;70.80;98690.34;4838107;29;20558;-64
2022/10/15 02:10:43;;;;;;;120.00;56.38;;;;;;;24.65;71.09;98689.50;4852444;29;20046;-65
2022/10/15 02:13:57;;;;;;;110.20;54.35;;;;;;;24.72;68.71;98700.84;4857401;29;20041;-64
2022/10/15 02:17:09;;;;;;;122.97;55.80;;;;;;;24.80;68.63;98699.31;4875259;29;20385;-64
2022/10/15 02:20:08;;;;;;;110.45;54.03;;;;;;;24.88;69.08;98711.50;4873760;29;20718;-65
2022/10/15 02:22:56;;;;;;;122.32;57.67;;;;;;;24.98;69.03;98714.03;4873764;29;20076;-66
2022/10/15 02:25:53;;;;;;;120.43;58.45;;;;;;;25.12;67.15;98711.22;4868483;29;20056;-67
2022/10/15 02:28:49;;;;;;;132.77;58.47;;;;;;;25.25;67.99;98715.09;4876771;29;20049;-67
2022/10/15 02:31:41;;;;;;;140.27;60.85;;;;;;;25.21;67.02;98714.88;4857836;29;20049;-67
2022/10/15 02:34:32;;;;;;;122.93;57.65;;;;;;;25.36;66.60;98711.78;4857749;29;20056;-65
2022/10/15 02:37:15;;;;;;;130.77;58.75;;;;;;;25.40;66.63;98726.50;4861172;29;20143;-65
2022/10/15 02:40:04;;;;;;;126.85;59.35;;;;;;;25.52;65.26;98728.69;4862813;29;20063;-65
2022/10/15 02:42:47;;;;;;;115.72;54.72;;;;;;;25.58;66.15;98738.47;4853671;29;20061;-65
2022/10/15 02:45:37;;;;;;;113.95;54.67;;;;;;;25.76;64.25;98731.13;4855998;29;20050;-66
2022/10/15 02:48:21;;;;;;;116.18;52.00;;;;;;;25.87;63.36;98730.84;4854565;29;20050;-67
2022/10/15 02:51:10;;;;;;;114.28;50.83;;;;;;;26.15;61.63;98737.81;4854556;29;20149;-66
2022/10/15 02:53:59;;;;;;;92.47;46.40;;;;;;;26.46;59.14;98745.22;4856147;29;20051;-65
2022/10/15 02:56:42;;;;;;;87.18;44.92;;;;;;;26.61;58.92;98749.53;4866969;29;20059;-67
2022/10/15 02:59:31;;;;;;;73.07;40.53;;;;;;;26.68;57.23;98751.81;4858413;29;20049;-65
2022/10/15 03:02:14;;;;;;;;;;;;;;;26.72;58.41;98753.59;4888098;29;20059;-65
2022/10/15 03:05:04;;;;;;;76.65;41.30;;;;;;;26.75;57.23;98755.72;4876654;29;19924;-65
2022/10/15 03:07:46;;;;;;;89.95;42.38;;;;;;;26.82;57.83;98749.72;4892922;29;20048;-65
2022/10/15 03:10:36;;;;;;;93.03;41.10;;;;;;;26.92;59.32;98754.13;4891492;29;20068;-65
2022/10/15 03:13:26;;;;;;;80.60;40.05;;;;;;;27.13;56.59;98757.06;4875873;29;20144;-64
2022/10/15 03:16:17;;;;;;;76.68;38.85;;;;;;;27.26;55.18;98752.56;4892232;29;20511;-65
2022/10/15 03:18:59;;;;;;;80.55;38.33;;;;;;;27.23;55.16;98761.44;4876279;29;20143;-65
2022/10/15 03:21:50;;;;;;;77.97;37.00;;;;;;;27.40;55.43;98763.44;4872405;29;20063;-65
2022/10/15 03:24:39;;;;;;;75.05;34.35;;;;;;;27.64;55.17;98769.25;4876178;29;20063;-65
2022/10/15 03:27:37;;;;;;;66.55;32.28;;;;;;;27.68;55.03;98763.91;4850286;29;20584;-65
2022/10/15 03:30:23;;;;;;;73.45;32.78;;;;;;;27.72;53.55;98759.34;4855191;29;20052;-65
2022/10/15 03:33:13;;;;;;;74.05;31.75;;;;;;;27.82;52.86;98764.53;4838522;29;20541;-65
2022/10/15 03:36:06;;;;;;;57.33;29.45;;;;;;;27.99;52.48;98763.72;4838979;29;20081;-65
2022/10/15 03:38:57;;;;;;;61.70;29.65;;;;;;;28.16;52.04;98767.56;4839517;29;20140;-67
2022/10/15 03:41:46;;;;;;;55.63;30.25;;;;;;;28.17;52.21;98763.69;4853666;29;20646;-65
2022/10/15 03:44:44;;;;;;;58.35;26.88;;;;;;;28.34;52.72;98771.06;4838978;29;20637;-65
2022/10/15 03:47:33;;;;;;;63.33;28.02;;;;;;;28.23;51.45;98768.69;4838632;29;20053;-65
2022/10/15 03:50:23;;;;;;;48.33;25.38;;;;;;;28.41;50.84;98774.94;4853511;29;20057;-65
2022/10/15 03:53:12;;;;;;;48.13;25.05;;;;;;;28.27;49.50;98775.16;4854066;29;20053;-65
2022/10/15 03:55:54;;;;;;;53.72;24.27;;;;;;;28.91;48.74;98776.19;4854342;29;20046;-66
2022/10/15 03:58:45;;;;;;;48.63;25.23;;;;;;;29.16;48.33;98768.06;4838729;29;20482;-66
2022/10/15 04:01:28;;;;;;;53.95;28.75;;;;;;;29.43;49.29;98770.31;4854149;29;20097;-66
2022/10/15 04:04:18;;;;;;;49.13;24.40;;;;;;;29.88;46.79;98762.44;4859345;29;20037;-66
2022/10/15 04:07:07;;;;;;;41.40;21.77;;;;;;;30.30;46.50;98765.06;4861553;29;20053;-65
2022/10/15 04:09:56;;;;;;;49.63;22.70;;;;;;;30.47;45.25;98770.41;4865800;29;20060;-66
2022/10/15 04:12:45;;;;;;;41.30;21.13;;;;;;;30.66;44.68;98769.84;4855847;29;20049;-66
2022/10/15 04:15:34;;;;;;;44.38;21.17;;;;;;;31.00;44.78;98763.03;4855980;29;20052;-66
2022/10/15 04:18:20;;;;;;;37.78;20.90;;;;;;;31.11;40.75;98757.00;4841824;29;20064;-65
2022/10/15 04:21:11;;;;;;;40.65;20.85;;;;;;;31.63;43.35;98761.72;4869154;29;20045;-66
2022/10/15 04:23:58;;;;;;;37.25;20.92;;;;;;;31.42;41.16;98764.66;4855420;29;20069;-66
2022/10/15 04:26:54;;;;;;;40.75;21.00;;;;;;;31.79;40.72;98759.78;4854822;29;20049;-66
2022/10/15 04:29:30;;;;;;;43.63;21.20;;;;;;;31.56;40.21;98762.31;4871739;29;20133;-66
2022/10/15 04:32:27;;;;;;;42.70;20.05;;;;;;;32.39;41.35;98764.56;4838015;29;20045;-66
2022/10/15 04:35:03;;;;;;;40.58;20.55;;;;;;;32.74;39.87;98761.06;4839557;29;20065;-67
2022/10/15 04:38:10;;;;;;;40.13;20.38;;;;;;;32.87;39.32;98768.13;4867570;29;20135;-67
2022/10/15 04:41:14;;;;;;;44.92;21.17;;;;;;;32.39;39.49;98759.81;4866290;29;20056;-65
2022/10/15 04:44:08;;;;;;;56.55;24.63;;;;;;;32.05;38.99;98760.50;4870623;29;20640;-66
2022/10/15 04:47:03;;;;;;;54.30;25.77;;;;;;;32.46;37.83;98769.47;4855024;29;20053;-65
2022/10/15 04:49:58;;;;;;;61.25;26.65;;;;;;;32.62;40.51;98769.47;4871461;29;20071;-66
2022/10/15 04:53:02;;;;;;;59.95;28.45;;;;;;;32.43;41.17;98761.84;4883306;29;20165;-65
2022/10/15 04:56:16;;;;;;;68.50;29.88;;;;;;;32.77;39.32;98769.47;4860631;29;20800;-64
2022/10/15 04:58:52;;;;;;;58.63;31.92;;;;;;;33.16;37.74;98761.25;4870907;29;20056;-65
2022/10/15 05:01:57;;;;;;;66.63;32.38;;;;;;;33.15;40.61;98768.00;4836634;29;20053;-65
2022/10/15 05:04:46;;;;;;;79.22;35.65;;;;;;;32.54;41.55;98763.75;4869194;29;20063;-65
2022/10/15 05:07:29;;;;;;;78.13;33.95;;;;;;;32.86;39.82;98765.69;4852591;29;20057;-66
2022/10/15 05:10:18;;;;;;;67.07;35.00;;;;;;;32.80;41.52;98759.59;4853810;29;20081;-64
2022/10/15 05:13:11;;;;;;;71.95;36.08;;;;;;;33.34;39.42;98758.88;4868889;29;20076;-64
2022/10/15 05:16:01;;;;;;;77.18;35.95;;;;;;;33.29;39.81;98756.34;4854290;29;20473;-64
2022/10/15 05:19:01;;;;;;;83.93;41.13;;;;;;;33.39;39.74;98754.19;4853660;29;20052;-65
2022/10/15 05:21:38;;;;;;;83.88;41.72;;;;;;;33.41;39.27;98746.25;4833390;29;20113;-65
2022/10/15 05:24:37;;;;;;;84.30;40.28;;;;;;;33.65;43.54;98750.72;4852429;29;20056;-65
2022/10/15 05:27:39;;;;;;;94.07;41.17;;;;;;;33.70;40.84;98748.47;4875211;29;20067;-65
2022/10/15 05:30:28;;;;;;;105.20;43.33;;;;;;;33.20;40.86;98741.06;4853424;29;20049;-64
2022/10/15 05:33:10;;;;;;;88.15;42.55;;;;;;;33.81;41.56;98742.31;4860734;29;20141;-64
2022/10/15 05:35:59;;;;;;;102.80;44.58;;;;;;;33.49;41.65;98736.88;4858302;29;20053;-66
2022/10/15 05:38:41;;;;;;;87.03;43.10;;;;;;;33.59;46.93;98735.47;4856056;29;20128;-65
2022/10/15 05:41:31;;;;;;;85.35;40.83;;;;;;;33.26;39.16;98728.47;4851502;29;20056;-65
2022/10/15 05:44:27;;;;;;;80.63;41.08;;;;;;;33.07;43.57;98732.00;4864245;29;20053;-64
2022/10/15 05:47:02;;;;;;;94.38;41.45;;;;;;;32.73;39.65;98726.91;4872650;29;20581;-65
2022/10/15 05:50:00;;;;;;;84.78;39.42;;;;;;;33.34;44.20;98731.03;4884196;29;20068;-63
2022/10/15 05:52:44;;;;;;;84.45;35.38;;;;;;;33.42;43.17;98720.03;4870334;29;20067;-64
2022/10/15 05:55:53;;;;;;;68.90;34.10;;;;;;;32.84;39.87;98729.91;4854150;29;20049;-64
2022/10/15 05:58:40;;;;;;;81.93;34.72;;;;;;;33.05;40.90;98717.66;4871102;29;20056;-64
2022/10/15 06:01:29;;;;;;;66.20;32.10;;;;;;;33.38;43.99;98719.16;4877856;29;20053;-64
2022/10/15 06:04:18;;;;;;;69.97;34.78;;;;;;;33.51;41.67;98712.28;4871082;29;20084;-64
2022/10/15 06:07:00;;;;;;;67.00;31.50;;;;;;;33.06;36.27;98702.59;4873118;29;20168;-64
2022/10/15 06:09:49;;;;;;;60.17;28.58;;;;;;;33.18;38.31;98705.28;4871725;29;20041;-63
2022/10/15 06:12:41;;;;;;;70.05;29.80;;;;;;;32.96;38.21;98706.75;4869172;29;20060;-63
2022/10/15 06:15:30;;;;;;;;;;;;;;;33.32;40.72;98702.75;4864365;29;20555;-64
2022/10/15 06:18:15;;;;;;;60.22;30.50;;;;;;;33.32;39.90;98697.19;4863188;29;20022;-64
2022/10/15 06:21:04;;;;;;;83.18;31.75;;;;;;;33.30;39.21;98699.53;4878228;29;20613;-64
2022/10/15 06:23:46;;;;;;;63.38;29.25;;;;;;;33.51;39.86;98690.03;4858328;29;20140;-65
2022/10/15 06:26:35;;;;;;;63.70;28.75;;;;;;;33.63;38.36;98691.81;4874375;29;20048;-65
2022/10/15 06:29:18;;;;;;;57.07;27.67;;;;;;;33.67;37.33;98681.59;4866592;29;20052;-64
2022/10/15 06:32:07;;;;;;;58.25;26.00;;;;;;;33.82;36.82;98682.66;4863180;29;20060;-64
2022/10/15 06:34:49;;;;;;;56.00;26.95;;;;;;;33.87;36.39;98680.38;4851888;29;20041;-65
2022/10/15 06:37:39;;;;;;;49.00;23.27;;;;;;;33.90;38.25;98673.28;4853862;29;20056;-65
2022/10/15 06:40:21;;;;;;;59.22;23.35;;;;;;;33.71;35.32;98674.94;4855394;29;20137;-65
2022/10/15 06:43:12;;;;;;;43.92;21.70;;;;;;;33.62;35.87;98674.34;4858683;29;20057;-64
2022/10/15 06:45:57;;;;;;;55.42;23.90;;;;;;;33.52;37.72;98664.63;4874440;29;20060;-65
2022/10/15 06:48:48;;;;;;;59.90;24.67;;;;;;;33.68;36.66;98661.75;4869055;29;20061;-65
2022/10/15 06:51:31;;;;;;;41.97;21.92;;;;;;;33.96;34.63;98655.09;4855005;29;20117;-64
2022/10/15 06:54:21;;;;;;;44.38;23.08;;;;;;;34.00;36.25;98650.38;4867878;29;20129;-65
2022/10/15 06:57:02;;;;;;;;;;;;;;;33.99;35.46;98656.31;4861177;29;20053;-65
2022/10/15 06:59:51;;;;;;;47.00;19.13;;;;;;;33.68;33.67;98653.41;4868689;29;19928;-64
2022/10/15 07:02:35;;;;;;;45.53;18.75;;;;;;;33.57;35.06;98644.00;4861295;29;20060;-65
2022/10/15 07:05:25;;;;;;;39.88;20.10;;;;;;;33.92;36.52;98638.31;4871040;29;20053;-66
2022/10/15 07:08:06;;;;;;;;;;;;;;;34.30;35.82;98635.75;4871818;29;20452;-65
2022/10/15 07:10:59;;;;;;;37.03;16.40;;;;;;;34.03;33.62;98632.94;4868977;29;19967;-65
2022/10/15 07:13:42;;;;;;;32.13;17.42;;;;;;;33.98;33.18;98624.88;4860238;29;20053;-65
2022/10/15 07:16:31;;;;;;;35.33;16.75;;;;;;;33.58;33.84;98631.72;4868869;29;20061;-64
2022/10/15 07:19:14;;;;;;;36.00;16.23;;;;;;;33.93;32.71;98619.63;4852309;29;20045;-66
2022/10/15 07:22:03;;;;;;;29.10;13.40;;;;;;;34.17;32.30;98623.22;4848748;29;20057;-67
2022/10/15 07:24:45;;;;;;;22.38;12.18;;;;;;;33.99;32.50;98611.75;4837965;29;20060;-65
2022/10/15 07:27:40;;;;;;;31.85;13.43;;;;;;;33.73;33.60;98610.56;4847188;29;20057;-66
2022/10/15 07:30:15;;;;;;;40.22;12.82;;;;;;;33.92;32.16;98598.53;4856422;29;20136;-65
2022/10/15 07:33:05;;;;;;;25.60;12.93;;;;;;;34.04;30.90;98600.31;4850589;29;20056;-64
2022/10/15 07:35:54;;;;;;;26.50;11.25;;;;;;;34.14;31.66;98600.47;4850834;29;20077;-65
2022/10/15 07:38:49;;;;;;;23.90;11.13;;;;;;;34.20;32.53;98591.81;4852527;29;20057;-66
2022/10/15 07:41:25;;;;;;;22.15;10.25;;;;;;;34.25;30.50;98577.59;4847585;29;20128;-66
2022/10/15 07:44:14;;;;;;;26.80;12.65;;;;;;;34.11;33.93;98581.72;4842237;29;20148;-66
2022/10/15 07:46:56;;;;;;;30.73;14.05;;;;;;;34.27;33.86;98575.22;4848958;29;20070;-66
2022/10/15 07:49:45;;;;;;;29.75;12.98;;;;;;;33.92;32.66;98574.28;4848532;29;20073;-67
2022/10/15 07:52:34;;;;;;;32.53;12.60;;;;;;;34.66;34.13;98569.34;4847088;29;20545;-63
2022/10/15 07:55:16;;;;;;;36.90;12.82;;;;;;;34.28;32.03;98565.66;4846983;29;20080;-66
2022/10/15 07:58:07;;;;;;;29.45;11.27;;;;;;;34.40;31.78;98557.09;4847441;29;20080;-66
2022/10/15 08:00:49;;;;;;;19.25;9.75;;;;;;;34.14;30.09;98560.69;4832378;29;20136;-67
2022/10/15 08:03:39;;;;;;;17.75;10.13;;;;;;;34.06;31.23;98553.41;4847331;29;20710;-68
2022/10/15 08:06:21;;;;;;;22.48;11.27;;;;;;;33.81;33.79;98558.59;4847783;29;20117;-67
2022/10/15 08:09:11;;;;;;;30.48;13.30;;;;;;;34.18;32.04;98546.84;4848028;29;20149;-67
2022/10/15 08:12:00;;;;;;;26.63;13.30;;;;;;;33.92;31.77;98542.84;4833439;29;20049;-66
2022/10/15 08:14:43;;;;;;;28.50;12.88;;;;;;;34.24;32.80;98542.53;4849582;29;20053;-66
2022/10/15 08:17:32;;;;;;;22.98;12.32;;;;;;;33.84;33.65;98538.34;4848440;29;20060;-66
2022/10/15 08:20:16;;;;;;;37.63;13.25;;;;;;;34.01;32.28;98529.44;4851147;29;20053;-66
2022/10/15 08:23:12;;;;;;;36.20;13.15;;;;;;;33.61;32.23;98530.00;4851540;29;20097;-66
2022/10/15 08:26:08;;;;;;;29.70;12.20;;;;;;;33.80;32.99;98526.34;4861318;29;20052;-65
2022/10/15 08:29:03;;;;;;;25.20;10.82;;;;;;;34.05;34.07;98523.94;4871640;29;20063;-66
2022/10/15 08:31:39;;;;;;;40.95;13.93;;;;;;;34.02;32.81;98522.72;4873390;29;20127;-64
2022/10/15 08:34:36;;;;;;;32.63;13.98;;;;;;;33.62;33.10;98524.06;4888098;29;20087;-73
2022/10/15 08:37:12;;;;;;;32.17;12.68;;;;;;;33.90;33.27;98515.38;4878794;29;20072;-70
2022/10/15 08:40:02;;;;;;;29.23;11.90;;;;;;;33.88;33.39;98516.91;4863601;29;20072;-74
2022/10/15 08:42:49;;;;;;;28.27;12.25;;;;;;;33.72;32.89;98511.53;4876495;29;20060;-74
2022/10/15 08:45:48;;;;;;;27.33;12.73;;;;;;;33.70;33.49;98520.25;4879679;29;20072;-74
2022/10/15 08:48:54;;;;;;;34.10;14.90;;;;;;;33.76;33.28;98511.59;4883781;29;20441;-69
2022/10/15 08:52:07;;;;;;;26.10;14.05;;;;;;;33.85;35.21;98506.56;4878340;29;20116;-73
2022/10/15 08:54:42;;;;;;;30.50;14.90;;;;;;;33.78;34.35;98504.44;4853836;29;20292;-72
2022/10/15 08:57:52;;;;;;;37.58;14.40;;;;;;;33.55;34.45;98504.47;4869951;29;20144;-74
2022/10/15 09:00:57;;;;;;;33.10;14.25;;;;;;;33.88;34.26;98494.66;4888585;29;20151;-72
2022/10/15 09:03:47;;;;;;;35.50;14.55;;;;;;;33.95;35.30;98494.75;4888542;29;20053;-68
2022/10/15 09:06:44;;;;;;;25.40;15.15;;;;;;;33.80;33.72;98490.16;4854711;29;20045;-73
2022/10/15 09:09:48;;;;;;;29.90;13.98;;;;;;;33.86;34.74;98488.66;4881721;29;20068;-69
2022/10/15 09:12:58;;;;;;;28.90;14.18;;;;;;;33.73;33.95;98486.09;4890476;29;20057;-72
2022/10/15 09:16:10;;;;;;;31.02;13.75;;;;;;;33.83;34.96;98481.06;4891349;29;20048;-72
2022/10/15 09:19:00;;;;;;;36.47;13.45;;;;;;;33.80;36.20;98481.81;4890783;29;20412;-70
2022/10/15 09:21:51;;;;;;;33.72;13.55;;;;;;;33.53;34.50;98484.56;4901802;29;20436;-72
2022/10/15 09:24:35;;;;;;;40.03;14.75;;;;;;;33.64;36.01;98493.13;4889969;29;20599;-72
2022/10/15 09:27:42;;;;;;;27.90;14.20;;;;;;;33.67;35.51;98486.78;4882772;29;20057;-73
2022/10/15 09:30:29;;;;;;;31.60;14.02;;;;;;;33.40;35.60;98488.72;4870123;29;20053;-73
2022/10/15 09:33:32;;;;;;;31.30;14.27;;;;;;;33.42;35.33;98492.75;4891802;29;20140;-73
2022/10/15 09:37:00;;;;;;;27.20;14.20;;;;;;;33.49;35.26;98480.91;4896371;29;20153;-72
2022/10/15 09:40:44;;;;;;;25.92;13.55;;;;;;;33.55;36.47;98476.63;4906250;29;20079;-73
2022/10/15 09:43:40;;;;;;;39.20;13.18;;;;;;;33.39;35.18;98484.34;4826693;29;20064;-73
2022/10/15 09:46:22;;;;;;;44.05;13.40;;;;;;;33.64;34.65;98473.63;4871299;29;20505;-73
2022/10/15 09:49:34;;;;;;;20.85;12.90;;;;;;;33.76;34.96;98469.84;4891912;29;20124;-71
2022/10/15 09:52:24;;;;;;;26.25;13.57;;;;;;;33.62;34.47;98462.06;4887899;29;20056;-71
2022/10/15 09:55:34;;;;;;;27.95;14.10;;;;;;;33.72;34.68;98465.00;4889616;29;20072;-71
2022/10/15 09:58:36;;;;;;;31.33;12.18;;;;;;;33.24;34.40;98470.19;4871438;29;20079;-72
2022/10/15 10:01:23;;;;;;;28.70;12.77;;;;;;;33.24;34.48;98464.63;4872065;29;20045;-74
2022/10/15 10:04:27;;;;;;;28.15;11.68;;;;;;;33.53;34.76;98459.50;4871600;29;20541;-72
2022/10/15 10:07:06;;;;;;;21.58;12.57;;;;;;;33.59;35.13;98471.94;4871224;29;20056;-73
2022/10/15 10:09:57;;;;;;;28.35;12.38;;;;;;;33.14;34.47;98471.59;4873349;29;20112;-72
2022/10/15 10:12:43;;;;;;;21.38;11.70;;;;;;;33.19;34.83;98470.50;4874719;29;20513;-73
2022/10/15 10:15:42;;;;;;;34.83;12.55;;;;;;;33.40;34.31;98469.25;4876117;29;20556;-73
2022/10/15 10:18:37;;;;;;;23.65;11.88;;;;;;;33.53;34.50;98465.09;4859856;29;20121;-74
2022/10/15 10:21:25;;;;;;;17.75;11.80;;;;;;;33.45;36.37;98468.94;4874618;29;20458;-73
2022/10/15 10:24:47;;;;;;;30.55;13.25;;;;;;;32.92;33.99;98481.53;4890406;29;20057;-72
2022/10/15 10:27:29;;;;;;;25.52;12.38;;;;;;;33.01;35.08;98477.69;4839477;29;20045;-72
2022/10/15 10:30:20;;;;;;;26.58;11.52;;;;;;;33.15;35.06;98480.75;4840990;29;20148;-73
2022/10/15 10:33:03;;;;;;;26.13;11.25;;;;;;;33.29;34.89;98471.88;4857830;29;20053;-73
2022/10/15 10:35:55;;;;;;;34.53;11.52;;;;;;;33.31;34.54;98475.88;4862841;29;20132;-72
2022/10/15 10:38:40;;;;;;;29.05;12.30;;;;;;;33.03;34.46;98475.34;4875853;29;20041;-73
2022/10/15 10:41:29;;;;;;;26.92;12.52;;;;;;;33.24;35.55;98484.09;4875872;29;20049;-71
2022/10/15 10:44:26;;;;;;;26.65;12.77;;;;;;;33.11;36.06;98477.09;4874911;29;20052;-73
2022/10/15 10:47:29;;;;;;;34.28;13.02;;;;;;;33.03;36.38;98478.13;4874840;29;20133;-73
2022/10/15 10:50:36;;;;;;;27.65;12.02;;;;;;;32.83;35.91;98475.41;4857392;29;20077;-74
2022/10/15 10:53:30;;;;;;;33.78;12.77;;;;;;;32.73;36.54;98481.53;4866830;29;20056;-72
2022/10/15 10:56:14;;;;;;;28.52;12.50;;;;;;;32.78;37.96;98479.28;4867955;29;20160;-74
2022/10/15 10:59:15;;;;;;;21.50;12.95;;;;;;;32.28;36.24;98474.69;4868082;29;20072;-72
2022/10/15 11:01:57;;;;;;;34.42;13.32;;;;;;;32.54;38.14;98480.38;4868311;29;20132;-76
2022/10/15 11:04:47;;;;;;;32.22;13.13;;;;;;;32.59;36.37;98473.75;4871592;29;20052;-72
2022/10/15 11:07:34;;;;;;;25.92;13.68;;;;;;;32.53;36.27;98475.97;4855167;29;20076;-70
2022/10/15 11:10:47;;;;;;;22.88;13.05;;;;;;;32.47;35.91;98474.66;4867186;29;20063;-74
2022/10/15 11:13:41;;;;;;;30.95;12.13;;;;;;;32.50;36.65;98476.72;4874022;29;20116;-74
2022/10/15 11:16:53;;;;;;;28.60;12.52;;;;;;;32.31;37.75;98483.09;4874586;29;20057;-71
2022/10/15 11:19:50;;;;;;;27.80;13.57;;;;;;;32.32;37.54;98479.13;4874401;29;20048;-71
2022/10/15 11:23:32;;;;;;;27.63;12.10;;;;;;;32.21;39.84;98477.28;4873668;29;20055;-73
2022/10/15 11:26:57;;;;;;;30.20;12.95;;;;;;;32.15;38.49;98480.34;4856223;29;20056;-69
2022/10/15 11:30:09;;;;;;;27.83;12.30;;;;;;;32.15;38.00;98477.56;4891144;29;20059;-69
2022/10/15 11:33:30;;;;;;;27.77;13.57;;;;;;;31.98;38.00;98484.31;4891293;29;20404;-69
2022/10/15 11:36:34;;;;;;;21.60;13.40;;;;;;;31.91;37.97;98484.19;4879369;29;20119;-70
2022/10/15 11:39:39;;;;;;;33.20;13.27;;;;;;;31.93;37.71;98487.38;4890230;29;20053;-69
2022/10/15 11:42:47;;;;;;;26.33;13.07;;;;;;;31.85;38.71;98487.56;4872197;29;20084;-69
2022/10/15 11:45:41;;;;;;;27.08;14.13;;;;;;;31.83;38.59;98492.69;4860081;29;20052;-68
2022/10/15 11:49:03;;;;;;;23.65;12.52;;;;;;;31.72;38.53;98482.16;4891224;29;20049;-71
2022/10/15 11:52:03;;;;;;;30.63;14.38;;;;;;;31.65;39.15;98498.63;4892498;29;20451;-71
2022/10/15 11:55:00;;;;;;;25.02;13.00;;;;;;;31.68;38.41;98497.09;4892741;29;20048;-71
2022/10/15 11:57:45;;;;;;;22.42;12.32;;;;;;;31.57;39.12;98488.53;4874283;29;20045;-70
2022/10/15 12:00:55;;;;;;;24.83;13.18;;;;;;;31.48;40.85;98494.25;4874723;29;20542;-69
2022/10/15 12:03:39;;;;;;;29.90;13.45;;;;;;;31.12;42.82;98498.84;4884408;29;20438;-72
2022/10/15 12:06:35;;;;;;;28.00;13.85;;;;;;;31.21;42.10;98496.72;4889776;29;20622;-70
2022/10/15 12:09:26;;;;;;;26.92;14.57;;;;;;;31.14;41.33;98490.19;4881185;29;20084;-71
2022/10/15 12:12:48;;;;;;;27.90;14.13;;;;;;;31.17;40.97;98501.38;4882795;29;20481;-71
2022/10/15 12:16:01;;;;;;;26.30;13.50;;;;;;;31.11;41.49;98491.72;4873865;29;20057;-71
2022/10/15 12:19:17;;;;;;;25.65;13.15;;;;;;;30.95;42.38;98491.69;4890812;29;20048;-70
2022/10/15 12:22:05;;;;;;;30.35;13.38;;;;;;;30.66;43.87;98498.38;4889226;29;20800;-71
2022/10/15 12:24:55;;;;;;;30.10;14.55;;;;;;;30.54;43.55;98498.44;4890635;29;20048;-71
2022/10/15 12:27:40;;;;;;;31.92;14.45;;;;;;;30.51;44.74;98501.91;4882596;29;20481;-70
2022/10/15 12:30:39;;;;;;;35.67;14.15;;;;;;;30.40;44.54;98501.59;4886544;29;20120;-71
2022/10/15 12:33:33;;;;;;;28.02;15.45;;;;;;;30.38;45.17;98501.16;4880259;29;20053;-74
2022/10/15 12:36:29;;;;;;;25.92;14.43;;;;;;;30.32;45.28;98497.81;4882272;29;20072;-73
2022/10/15 12:39:30;;;;;;;25.65;14.90;;;;;;;29.93;47.31;98500.19;4881932;29;21522;-70
2022/10/15 12:42:39;;;;;;;30.45;16.42;;;;;;;29.94;47.10;98489.91;4885630;29;20160;-70
2022/10/15 12:45:39;;;;;;;40.20;17.25;;;;;;;29.71;47.09;98504.19;4879648;29;20045;-73
2022/10/15 12:48:29;;;;;;;38.38;16.65;;;;;;;29.63;47.97;98510.66;4876167;29;20472;-70
2022/10/15 12:51:28;;;;;;;35.40;16.70;;;;;;;29.70;46.93;98505.38;4872180;29;20504;-70
2022/10/15 12:54:45;;;;;;;32.63;15.27;;;;;;;29.82;46.57;98510.91;4871660;29;20694;-69
2022/10/15 12:57:39;;;;;;;30.67;14.43;;;;;;;29.68;46.34;98504.91;4848731;29;20057;-69
2022/10/15 13:00:37;;;;;;;32.25;14.73;;;;;;;29.64;46.68;98515.06;4875666;29;20151;-70
2022/10/15 13:03:31;;;;;;;31.60;14.63;;;;;;;29.76;46.09;98505.97;4878196;29;20061;-69
2022/10/15 13:06:20;;;;;;;31.13;15.15;;;;;;;29.65;47.14;98516.66;4543622;29;9999930;-68
2022/10/15 13:09:17;;;;;;;30.42;15.85;;;;;;;29.36;48.05;98509.38;4880602;29;20049;-70
2022/10/15 13:12:20;;;;;;;36.28;16.80;;;;;;;29.51;47.82;98513.44;4880032;29;20501;-70
2022/10/15 13:15:23;;;;;;;32.47;15.27;;;;;;;29.38;49.42;98515.38;4845686;29;20045;-71